Time;durP1;ratioP1;P1;durP2;ratioP2;P2;SDS_P1;SDS_P2;PMS_P1;PMS_P2;Temp;Humidity;BMP_temperature;BMP_pressure;BME280_temperature;BME280_humidity;BME280_pressure;Samples;Min_cycle;Max_cycle;Signal;HPM_P1;HPM_P2
2023/03/23 00:00:21;;;;;;;;;4.00;2.00;;;;;20.66;55.74;100041.48;109490;1254;21798;-72
2023/03/23 00:03:08;;;;;;;;;2.00;2.00;;;;;20.67;55.71;100038.17;109532;1260;19150;-71
2023/03/23 00:05:36;;;;;;;;;3.00;3.00;;;;;20.67;55.53;100040.35;109528;1254;20820;-71
2023/03/23 00:08:04;;;;;;;;;4.00;4.00;;;;;20.66;55.68;100037.55;109511;1253;21504;-71
2023/03/23 00:10:32;;;;;;;;;2.50;2.50;;;;;20.67;55.54;100036.36;109510;1268;19123;-72
2023/03/23 00:13:02;;;;;;;;;2.00;2.00;;;;;20.67;55.65;100037.96;109487;1260;23045;-72
2023/03/23 00:15:32;;;;;;;;;3.00;3.00;;;;;20.66;55.49;100038.50;109473;1253;21679;-72
2023/03/23 00:18:04;;;;;;;;;2.00;2.00;;;;;20.66;55.69;100037.50;109487;1253;19691;-71
2023/03/23 00:20:39;;;;;;;;;4.00;3.00;;;;;20.67;55.48;100030.89;109510;1261;21014;-71
2023/03/23 00:23:06;;;;;;;;;2.00;2.00;;;;;20.67;55.55;100031.09;109520;1263;21521;-71
2023/03/23 00:25:34;;;;;;;;;4.00;3.00;;;;;20.67;55.48;100026.52;109492;1254;23508;-71
2023/03/23 00:28:02;;;;;;;;;2.00;2.00;;;;;20.66;55.50;100025.39;109491;1253;20895;-72
2023/03/23 00:30:30;;;;;;;;;2.50;2.50;;;;;20.66;55.63;100027.52;109491;1261;21762;-72
2023/03/23 00:32:57;;;;;;;;;3.00;2.00;;;;;20.66;55.57;100024.52;109522;1268;19398;-72
2023/03/23 00:35:25;;;;;;;;;4.00;2.00;;;;;20.67;55.53;100027.66;109493;1269;19316;-72
2023/03/23 00:37:52;;;;;;;;;1.00;1.00;;;;;20.66;55.46;100025.60;109485;1268;20149;-72
2023/03/23 00:40:19;;;;;;;;;1.00;1.00;;;;;20.66;55.61;100025.34;109510;1254;23738;-72
2023/03/23 00:42:48;;;;;;;;;2.00;2.00;;;;;20.66;55.57;100026.77;109468;1268;21601;-73
2023/03/23 00:45:16;;;;;;;;;2.00;2.00;;;;;20.67;55.36;100025.48;109509;1253;21551;-72
2023/03/23 00:47:46;;;;;;;;;2.00;2.00;;;;;20.66;55.64;100021.41;109545;1268;19107;-72
2023/03/23 00:50:13;;;;;;;;;1.50;1.50;;;;;20.66;55.51;100023.88;109546;1269;19398;-72
2023/03/23 00:52:41;;;;;;;;;2.50;2.50;;;;;20.66;55.57;100027.61;109492;1254;21646;-73
2023/03/23 00:55:08;;;;;;;;;2.00;2.00;;;;;20.65;55.47;100028.91;109480;1269;19688;-72
2023/03/23 00:57:36;;;;;;;;;2.00;2.00;;;;;20.66;55.57;100022.55;109487;1254;20788;-72
2023/03/23 01:00:05;;;;;;;;;2.00;2.00;;;;;20.64;55.33;100020.31;109477;1253;22701;-72
2023/03/23 01:02:32;;;;;;;;;4.00;4.00;;;;;20.65;55.59;100018.77;109492;1253;19612;-71
2023/03/23 01:05:00;;;;;;;;;2.00;2.00;;;;;20.65;55.47;100018.05;109497;1268;19611;-72
2023/03/23 01:07:28;;;;;;;;;2.00;2.00;;;;;20.65;55.29;100022.96;109483;1268;20144;-72
2023/03/23 01:09:57;;;;;;;;;2.00;2.00;;;;;20.65;55.39;100024.72;109489;1253;19715;-72
2023/03/23 01:12:25;;;;;;;;;2.00;2.00;;;;;20.65;55.34;100025.30;109501;1268;19410;-72
2023/03/23 01:14:52;;;;;;;;;4.00;4.00;;;;;20.65;55.37;100024.66;109470;1253;23281;-72
2023/03/23 01:17:20;;;;;;;;;1.00;1.00;;;;;20.64;55.53;100023.23;109538;1253;19202;-72
2023/03/23 01:19:48;;;;;;;;;2.00;2.00;;;;;20.65;55.36;100024.17;109528;1253;22898;-73
2023/03/23 01:22:16;;;;;;;;;4.00;4.00;;;;;20.65;55.44;100024.76;109517;1268;20061;-74
2023/03/23 01:24:43;;;;;;;;;1.00;1.00;;;;;20.65;55.42;100011.57;109484;1253;19725;-70
2023/03/23 01:27:10;;;;;;;;;2.00;2.00;;;;;20.65;55.49;100007.38;109532;1253;20774;-71
2023/03/23 01:29:37;;;;;;;;;2.00;2.00;;;;;20.64;55.41;100002.93;109500;1253;22814;-71
2023/03/23 01:32:05;;;;;;;;;1.00;1.00;;;;;20.64;55.46;99997.38;109478;1253;19725;-71
2023/03/23 01:34:32;;;;;;;;;2.00;2.00;;;;;20.65;55.26;100000.08;109513;1269;19811;-72
2023/03/23 01:37:00;;;;;;;;;1.00;1.00;;;;;20.65;55.34;99996.15;109502;1254;23259;-72
2023/03/23 01:39:27;;;;;;;;;1.50;1.50;;;;;20.66;55.15;99991.29;109519;1262;19710;-72
2023/03/23 01:41:54;;;;;;;;;2.00;2.00;;;;;20.64;55.06;99984.31;109512;1253;23094;-72
2023/03/23 01:44:22;;;;;;;;;2.00;2.00;;;;;20.63;55.24;99986.15;109528;1253;21498;-72
2023/03/23 01:46:49;;;;;;;;;2.00;2.00;;;;;20.64;55.35;99982.98;109489;1254;19193;-72
2023/03/23 01:49:17;;;;;;;;;2.00;2.00;;;;;20.64;55.38;99976.95;109524;1253;20740;-72
2023/03/23 01:51:44;;;;;;;;;2.00;2.00;;;;;20.64;55.28;99980.84;109520;1260;21851;-72
2023/03/23 01:54:13;;;;;;;;;4.00;3.50;;;;;20.63;55.28;99985.27;109490;1254;20909;-73
2023/03/23 01:56:41;;;;;;;;;1.00;1.00;;;;;20.64;55.31;99988.77;109532;1253;23414;-72
2023/03/23 01:59:10;;;;;;;;;2.00;2.00;;;;;20.64;55.33;99991.91;109482;1269;21815;-73
2023/03/23 02:01:39;;;;;;;;;2.00;2.00;;;;;20.64;55.12;99990.45;109507;1268;19237;-73
2023/03/23 02:04:07;;;;;;;;;4.00;2.00;;;;;20.64;55.26;99990.77;109586;1268;21205;-73
2023/03/23 02:06:34;;;;;;;;;2.00;2.00;;;;;20.63;55.35;99983.39;109605;1253;21650;-72
2023/03/23 02:09:02;;;;;;;;;2.00;2.00;;;;;20.64;55.11;99981.17;109536;1253;19087;-72
2023/03/23 02:11:30;;;;;;;;;4.00;2.00;;;;;20.64;55.45;99978.30;109539;1253;20855;-72
2023/03/23 02:13:57;;;;;;;;;2.00;2.00;;;;;20.63;55.18;99973.29;109494;1268;20353;-73
2023/03/23 02:16:24;;;;;;;;;4.00;4.00;;;;;20.63;55.35;99965.25;109480;1268;20940;-72
2023/03/23 02:18:52;;;;;;;;;2.00;2.00;;;;;20.63;55.21;99962.64;109489;1260;19420;-70
2023/03/23 02:21:19;;;;;;;;;2.00;2.00;;;;;20.63;55.13;99963.55;109536;1268;20196;-71
2023/03/23 02:23:46;;;;;;;;;2.00;2.00;;;;;20.62;55.29;99959.92;109512;1268;19543;-71
2023/03/23 02:26:14;;;;;;;;;2.00;2.00;;;;;20.62;55.08;99959.07;109515;1253;20761;-71
2023/03/23 02:28:42;;;;;;;;;2.50;2.50;;;;;20.63;55.28;99962.81;109519;1254;21575;-71
2023/03/23 02:31:11;;;;;;;;;2.00;2.00;;;;;20.63;55.27;99964.27;109534;1253;21646;-71
2023/03/23 02:33:38;;;;;;;;;2.00;2.00;;;;;20.63;55.37;99960.29;109522;1253;20824;-71
2023/03/23 02:36:05;;;;;;;;;2.00;2.00;;;;;20.62;55.20;99959.83;109505;1253;21591;-71
2023/03/23 02:38:33;;;;;;;;;4.00;4.00;;;;;20.62;55.08;99955.81;109506;1261;19250;-72
2023/03/23 02:41:00;;;;;;;;;3.50;3.50;;;;;20.63;55.14;99961.69;109496;1268;22025;-72
2023/03/23 02:43:27;;;;;;;;;4.00;2.00;;;;;20.62;55.00;99959.84;109468;1254;22161;-72
2023/03/23 02:45:55;;;;;;;;;2.00;2.00;;;;;20.62;55.19;99960.66;109497;1253;23512;-72
2023/03/23 02:48:22;;;;;;;;;1.00;1.00;;;;;20.61;55.11;99958.65;109503;1268;19591;-72
2023/03/23 02:50:49;;;;;;;;;2.50;2.50;;;;;20.61;55.14;99951.95;109514;1254;22735;-72
2023/03/23 02:53:17;;;;;;;;;4.00;2.00;;;;;20.61;55.00;99945.41;109519;1269;19222;-72
2023/03/23 02:55:44;;;;;;;;;2.00;2.00;;;;;20.62;55.13;99939.85;109491;1268;22173;-73
2023/03/23 02:58:11;;;;;;;;;4.00;2.00;;;;;20.61;55.16;99939.55;109484;1268;20162;-72
2023/03/23 03:00:39;;;;;;;;;4.00;4.00;;;;;20.62;55.10;99937.70;109478;1268;23023;-72
2023/03/23 03:03:06;;;;;;;;;2.00;2.00;;;;;20.61;55.23;99932.55;109458;1253;20625;-72
2023/03/23 03:05:33;;;;;;;;;2.00;2.00;;;;;20.62;55.02;99928.79;109529;1253;20178;-73
2023/03/23 03:08:01;;;;;;;;;4.00;2.00;;;;;20.61;55.16;99930.38;109507;1253;19665;-72
2023/03/23 03:10:28;;;;;;;;;4.00;2.00;;;;;20.61;55.08;99925.05;109509;1260;20881;-72
2023/03/23 03:12:56;;;;;;;;;2.00;2.00;;;;;20.62;55.11;99925.19;109501;1269;20201;-72
2023/03/23 03:15:23;;;;;;;;;2.00;2.00;;;;;20.61;54.83;99926.36;109312;1269;19139;-72
2023/03/23 03:17:50;;;;;;;;;2.00;2.00;;;;;20.61;54.95;99923.64;109472;1254;20818;-73
2023/03/23 03:20:18;;;;;;;;;4.00;2.00;;;;;20.60;55.09;99927.02;109502;1254;21860;-73
2023/03/23 03:22:47;;;;;;;;;2.00;2.00;;;;;20.61;54.98;99929.11;109496;1268;19307;-72
2023/03/23 03:25:15;;;;;;;;;2.00;2.00;;;;;20.61;54.98;99925.84;109516;1268;20479;-73
2023/03/23 03:27:42;;;;;;;;;2.00;2.00;;;;;20.61;55.08;99921.96;109531;1253;21536;-73
2023/03/23 03:30:10;;;;;;;;;3.00;2.00;;;;;20.61;54.95;99923.84;109518;1269;19527;-71
2023/03/23 03:32:38;;;;;;;;;2.00;2.00;;;;;20.61;55.06;99918.61;109470;1253;20819;-71
2023/03/23 03:35:06;;;;;;;;;2.33;2.00;;;;;20.61;55.07;99911.02;109454;1253;21526;-71
2023/03/23 03:37:33;;;;;;;;;2.00;2.00;;;;;20.61;55.02;99909.55;109510;1254;19811;-71
2023/03/23 03:40:00;;;;;;;;;2.00;2.00;;;;;20.61;54.90;99917.81;109488;1268;19396;-71
2023/03/23 03:42:28;;;;;;;;;2.00;2.00;;;;;20.59;54.94;99915.88;109499;1254;23224;-71
2023/03/23 03:44:55;;;;;;;;;2.00;2.00;;;;;20.60;54.98;99918.73;109489;1269;20050;-71
2023/03/23 03:47:22;;;;;;;;;2.00;2.00;;;;;20.61;54.91;99919.70;109513;1252;19442;-71
2023/03/23 03:49:50;;;;;;;;;4.00;4.00;;;;;20.61;54.84;99920.98;109533;1269;20023;-72
2023/03/23 03:52:17;;;;;;;;;2.00;2.00;;;;;20.60;54.76;99923.29;109469;1254;23081;-71
2023/03/23 03:54:44;;;;;;;;;5.00;4.00;;;;;20.60;55.07;99923.84;109478;1253;22980;-71
2023/03/23 03:57:12;;;;;;;;;4.00;2.00;;;;;20.60;55.07;99922.70;109472;1269;21800;-72
2023/03/23 03:59:39;;;;;;;;;2.00;2.00;;;;;20.59;54.78;99920.61;109500;1254;20348;-71
2023/03/23 04:02:08;;;;;;;;;2.00;2.00;;;;;20.60;54.82;99915.67;109458;1253;20867;-71
2023/03/23 04:04:35;;;;;;;;;4.00;2.00;;;;;20.60;54.91;99916.59;109459;1253;22800;-71
2023/03/23 04:07:02;;;;;;;;;2.00;2.00;;;;;20.59;55.09;99909.02;109532;1253;19757;-71
2023/03/23 04:09:31;;;;;;;;;2.00;2.00;;;;;20.59;54.98;99908.97;109490;1253;21163;-72
2023/03/23 04:11:58;;;;;;;;;2.00;2.00;;;;;20.59;54.88;99904.14;109512;1253;24841;-71
2023/03/23 04:14:25;;;;;;;;;2.00;2.00;;;;;20.58;55.08;99900.58;109518;1269;19566;-71
2023/03/23 04:16:56;;;;;;;;;2.00;2.00;;;;;20.58;54.95;99894.84;109485;1268;19324;-71
2023/03/23 04:19:23;;;;;;;;;2.00;2.00;;;;;20.59;54.88;99897.98;109533;1253;21569;-71
2023/03/23 04:21:51;;;;;;;;;2.00;2.00;;;;;20.58;54.93;99901.34;109497;1252;20943;-71
2023/03/23 04:24:21;;;;;;;;;2.00;2.00;;;;;20.58;54.71;99901.13;109502;1254;20897;-71
2023/03/23 04:26:48;;;;;;;;;2.00;2.00;;;;;20.58;54.85;99905.56;109495;1269;20546;-73
2023/03/23 04:29:15;;;;;;;;;2.00;2.00;;;;;20.58;54.77;99901.23;109542;1254;19700;-72
2023/03/23 04:31:44;;;;;;;;;4.00;4.00;;;;;20.58;55.01;99896.10;109526;1253;21273;-73
2023/03/23 04:34:13;;;;;;;;;3.00;3.00;;;;;20.57;54.89;99892.39;109460;1253;21555;-72
2023/03/23 04:36:40;;;;;;;;;2.50;2.50;;;;;20.58;54.81;99892.88;109466;1253;22956;-72
2023/03/23 04:39:09;;;;;;;;;2.00;2.00;;;;;20.58;54.92;99879.80;109489;1253;19431;-73
2023/03/23 04:41:37;;;;;;;;;2.00;2.00;;;;;20.57;54.99;99870.95;109496;1268;20141;-72
2023/03/23 04:44:05;;;;;;;;;2.00;2.00;;;;;20.57;54.79;99866.30;109448;1268;19218;-72
2023/03/23 04:46:32;;;;;;;;;4.00;2.00;;;;;20.56;54.86;99873.11;109495;1269;19439;-73
2023/03/23 04:49:00;;;;;;;;;4.00;4.00;;;;;20.57;54.95;99873.70;109509;1253;20187;-72
2023/03/23 04:51:27;;;;;;;;;4.00;2.50;;;;;20.57;54.85;99878.95;109500;1253;20735;-72
2023/03/23 04:53:55;;;;;;;;;4.00;2.00;;;;;20.57;55.05;99879.16;109499;1263;20745;-72
2023/03/23 04:56:22;;;;;;;;;4.00;4.00;;;;;20.58;54.69;99885.95;109479;1268;21486;-72
2023/03/23 04:58:50;;;;;;;;;2.00;2.00;;;;;20.57;54.70;99885.34;109468;1253;19694;-72
2023/03/23 05:01:18;;;;;;;;;2.00;2.00;;;;;20.57;54.71;99883.71;109481;1268;20737;-72
2023/03/23 05:03:45;;;;;;;;;2.00;2.00;;;;;20.57;54.96;99882.13;109477;1269;21401;-71
2023/03/23 05:06:13;;;;;;;;;2.00;2.00;;;;;20.57;54.75;99883.34;109476;1260;19173;-72
2023/03/23 05:08:40;;;;;;;;;2.00;2.00;;;;;20.59;54.77;99875.17;109465;1253;20812;-71
2023/03/23 05:11:08;;;;;;;;;1.00;1.00;;;;;20.58;54.79;99876.90;109461;1253;22937;-71
2023/03/23 05:13:35;;;;;;;;;4.00;4.00;;;;;20.58;54.90;99880.16;109506;1253;19649;-71
2023/03/23 05:16:03;;;;;;;;;2.00;2.00;;;;;20.59;54.62;99877.30;109512;1254;20783;-72
2023/03/23 05:18:31;;;;;;;;;2.00;2.00;;;;;20.58;54.83;99870.48;109483;1256;21571;-71
2023/03/23 05:20:59;;;;;;;;;2.00;2.00;;;;;20.57;54.90;99868.67;109453;1268;19255;-72
2023/03/23 05:23:26;;;;;;;;;1.00;1.00;;;;;20.57;54.78;99865.17;109508;1253;22141;-71
2023/03/23 05:25:53;;;;;;;;;2.50;2.50;;;;;20.56;54.77;99861.09;109493;1269;21587;-71
2023/03/23 05:28:21;;;;;;;;;2.00;2.00;;;;;20.57;54.56;99865.18;109490;1269;19106;-71
2023/03/23 05:30:49;;;;;;;;;3.00;3.00;;;;;20.57;54.79;99871.40;109516;1268;20600;-71
2023/03/23 05:33:16;;;;;;;;;;;;;;;20.57;54.80;99873.21;109502;1267;21629;-71
2023/03/23 05:35:43;;;;;;;;;2.00;2.00;;;;;20.55;54.81;99872.86;109513;1253;24460;-71
2023/03/23 05:38:11;;;;;;;;;4.00;2.00;;;;;20.57;54.66;99877.17;109516;1253;20988;-72
2023/03/23 05:40:38;;;;;;;;;4.00;4.00;;;;;20.55;54.63;99864.86;109518;1254;21656;-72
2023/03/23 05:43:06;;;;;;;;;2.00;2.00;;;;;20.56;54.86;99861.31;109524;1269;19299;-72
2023/03/23 05:45:34;;;;;;;;;2.00;2.00;;;;;20.57;54.82;99865.30;109471;1269;19493;-71
2023/03/23 05:48:02;;;;;;;;;2.00;2.00;;;;;20.57;54.83;99866.88;109462;1268;21477;-72
2023/03/23 05:50:29;;;;;;;;;1.00;1.00;;;;;20.57;54.87;99862.25;109543;1263;19149;-72
2023/03/23 05:52:57;;;;;;;;;2.00;2.00;;;;;20.57;54.83;99856.95;109567;1268;19371;-72
2023/03/23 05:55:24;;;;;;;;;2.00;2.00;;;;;20.58;54.77;99856.73;109515;1253;23077;-73
2023/03/23 05:57:52;;;;;;;;;2.00;2.00;;;;;20.58;55.02;99854.68;109503;1260;22840;-73
2023/03/23 06:00:22;;;;;;;;;4.00;2.00;;;;;20.58;54.98;99851.83;109451;1254;20804;-72
2023/03/23 06:02:50;;;;;;;;;2.00;2.00;;;;;20.59;54.90;99854.17;109480;1268;21449;-72
2023/03/23 06:05:19;;;;;;;;;2.00;2.00;;;;;20.61;54.68;99849.58;109497;1268;22219;-72
2023/03/23 06:07:47;;;;;;;;;2.00;2.00;;;;;20.65;54.76;99843.84;109482;1268;22240;-72
2023/03/23 06:10:14;;;;;;;;;2.00;2.00;;;;;20.69;54.96;99843.82;109551;1268;20115;-72
2023/03/23 06:12:42;;;;;;;;;2.00;2.00;;;;;20.70;55.19;99840.98;109495;1263;19563;-71
2023/03/23 06:15:09;;;;;;;;;2.00;2.00;;;;;20.69;55.08;99836.44;109476;1269;20656;-71
2023/03/23 06:17:36;;;;;;;;;2.00;2.00;;;;;20.67;55.37;99829.52;109484;1254;22712;-71
2023/03/23 06:20:08;;;;;;;;;2.00;2.00;;;;;20.66;55.61;99823.52;109439;1253;23257;-71
2023/03/23 06:22:37;;;;;;;;;2.00;2.00;;;;;20.66;55.42;99814.65;109552;1268;19603;-71
2023/03/23 06:25:05;;;;;;;;;2.00;2.00;;;;;20.66;55.47;99817.75;109477;1253;23367;-70
2023/03/23 06:27:32;;;;;;;;;2.00;2.00;;;;;20.65;55.55;99815.86;109479;1253;19673;-70
2023/03/23 06:29:59;;;;;;;;;4.00;3.00;;;;;20.65;55.75;99817.08;109468;1253;20789;-71
2023/03/23 06:32:27;;;;;;;;;4.00;2.00;;;;;20.66;55.47;99819.05;109483;1263;20216;-71
2023/03/23 06:34:54;;;;;;;;;4.00;2.00;;;;;20.66;55.69;99813.77;109464;1254;23273;-72
2023/03/23 06:37:21;;;;;;;;;5.00;4.00;;;;;20.66;55.36;99817.38;109479;1254;21610;-72
2023/03/23 06:39:49;;;;;;;;;2.00;2.00;;;;;20.66;55.53;99825.54;109531;1254;23166;-72
2023/03/23 06:42:16;;;;;;;;;2.00;2.00;;;;;20.67;55.66;99829.73;109525;1261;19620;-72
2023/03/23 06:44:44;;;;;;;;;3.00;3.00;;;;;20.65;55.78;99828.89;109593;1253;20716;-71
2023/03/23 06:47:11;;;;;;;;;2.00;2.00;;;;;20.65;55.67;99820.59;109607;1268;20168;-71
2023/03/23 06:49:38;;;;;;;;;2.00;2.00;;;;;20.64;55.95;99817.31;109604;1260;22823;-70
2023/03/23 06:52:06;;;;;;;;;2.00;2.00;;;;;20.63;55.85;99819.14;109492;1253;20986;-72
2023/03/23 06:54:33;;;;;;;;;2.00;2.00;;;;;20.64;55.73;99807.67;109532;1269;22459;-71
2023/03/23 06:57:01;;;;;;;;;2.00;2.00;;;;;20.67;55.62;99799.44;109512;1268;19354;-71
2023/03/23 06:59:28;;;;;;;;;4.00;2.00;;;;;20.69;55.85;99806.48;109535;1253;22189;-70
2023/03/23 07:01:56;;;;;;;;;2.00;2.00;;;;;20.69;55.73;99807.88;109494;1253;23167;-70
2023/03/23 07:04:24;;;;;;;;;2.50;2.50;;;;;20.69;55.64;99802.47;109481;1254;19818;-70
2023/03/23 07:06:51;;;;;;;;;2.00;2.00;;;;;20.67;55.68;99798.48;109514;1268;20895;-70
2023/03/23 07:09:18;;;;;;;;;3.50;2.50;;;;;20.67;55.74;99798.02;109508;1253;23576;-70
2023/03/23 07:11:47;;;;;;;;;1.50;1.50;;;;;20.67;55.77;99794.71;109507;1253;19611;-70
2023/03/23 07:14:14;;;;;;;;;2.00;2.00;;;;;20.66;56.02;99799.73;109504;1253;20800;-71
2023/03/23 07:16:42;;;;;;;;;2.00;2.00;;;;;20.67;55.79;99805.77;109492;1253;22848;-71
2023/03/23 07:19:09;;;;;;;;;2.00;2.00;;;;;20.68;56.04;99808.88;109471;1262;23436;-70
2023/03/23 07:21:36;;;;;;;;;2.00;2.00;;;;;20.68;55.79;99807.83;109472;1268;19402;-70
2023/03/23 07:24:04;;;;;;;;;2.00;2.00;;;;;20.69;55.88;99812.44;109494;1253;20166;-70
2023/03/23 07:26:31;;;;;;;;;2.00;2.00;;;;;20.69;55.72;99818.77;109494;1269;22271;-70
2023/03/23 07:28:58;;;;;;;;;2.00;2.00;;;;;20.68;55.73;99818.48;109516;1254;23927;-70
2023/03/23 07:31:26;;;;;;;;;2.00;2.00;;;;;20.68;55.80;99817.08;109533;1253;21491;-70
2023/03/23 07:33:53;;;;;;;;;2.00;2.00;;;;;20.67;55.61;99815.20;109508;1268;23048;-70
2023/03/23 07:36:21;;;;;;;;;1.00;1.00;;;;;20.68;55.89;99821.30;109568;1254;23538;-70
2023/03/23 07:38:49;;;;;;;;;2.00;2.00;;;;;20.67;55.92;99818.88;109572;1268;20296;-70
2023/03/23 07:41:17;;;;;;;;;1.00;1.00;;;;;20.67;55.93;99812.85;109584;1253;22011;-70
2023/03/23 07:43:44;;;;;;;;;4.00;2.00;;;;;20.67;55.70;99813.44;109494;1253;20837;-69
2023/03/23 07:46:11;;;;;;;;;2.00;1.00;;;;;20.67;55.68;99807.81;109477;1268;21613;-70
2023/03/23 07:48:39;;;;;;;;;4.00;4.00;;;;;20.66;55.87;99801.79;109487;1253;19162;-69
2023/03/23 07:51:06;;;;;;;;;8.00;7.00;;;;;20.66;55.62;99791.77;109498;1269;23706;-70
2023/03/23 07:53:34;;;;;;;;;5.00;5.00;;;;;20.65;54.99;99789.55;109531;1253;23473;-70
2023/03/23 07:56:03;;;;;;;;;8.00;8.00;;;;;20.64;54.14;99796.16;109521;1268;19093;-69
2023/03/23 07:58:30;;;;;;;;;9.00;8.00;;;;;20.67;53.27;99798.48;109487;1269;21986;-70
2023/03/23 08:00:58;;;;;;;;;10.00;8.00;;;;;20.69;52.54;99799.33;109538;1253;20176;-70
2023/03/23 08:03:26;;;;;;;;;13.00;11.00;;;;;20.68;51.70;99803.59;109515;1254;19617;-71
2023/03/23 08:05:53;;;;;;;;;13.00;12.00;;;;;20.69;50.44;99806.63;109480;1268;19983;-71
2023/03/23 08:08:21;;;;;;;;;11.00;10.00;;;;;20.65;49.79;99799.65;109534;1268;22661;-76
2023/03/23 08:10:49;;;;;;;;;10.00;8.00;;;;;20.67;49.84;99805.90;109554;1253;19142;-77
2023/03/23 08:13:16;;;;;;;;;8.00;8.00;;;;;20.75;49.67;99804.31;109529;1269;19420;-77
2023/03/23 08:15:44;;;;;;;;;14.50;11.50;;;;;20.70;49.42;99799.05;109530;1253;20195;-78
2023/03/23 08:18:11;;;;;;;;;12.00;10.00;;;;;20.61;48.91;99799.07;109561;1268;19235;-76
2023/03/23 08:20:40;;;;;;;;;11.00;10.00;;;;;20.62;48.91;99796.35;109526;1254;20902;-76
2023/03/23 08:23:08;;;;;;;;;8.00;8.00;;;;;20.60;48.66;99800.74;109535;1253;21622;-71
2023/03/23 08:25:36;;;;;;;;;11.00;10.00;;;;;20.60;48.55;99799.77;109375;1253;167492;-71
2023/03/23 08:28:03;;;;;;;;;10.50;10.50;;;;;20.53;48.17;99794.33;109508;1253;24538;-71
2023/03/23 08:30:32;;;;;;;;;83.50;63.00;;;;;20.53;48.00;99795.88;109504;1263;20163;-71
2023/03/23 08:33:00;;;;;;;;;89.00;63.50;;;;;20.57;47.97;99793.09;109493;1268;22533;-71
2023/03/23 08:35:27;;;;;;;;;94.00;70.50;;;;;20.62;48.10;99786.44;109504;1253;19530;-71
2023/03/23 08:37:55;;;;;;;;;108.00;78.00;;;;;20.68;48.33;99788.77;109498;1269;21524;-70
2023/03/23 08:40:22;;;;;;;;;106.00;77.00;;;;;20.73;48.53;99794.67;109505;1262;19146;-71
2023/03/23 08:42:50;;;;;;;;;80.50;61.00;;;;;20.72;48.97;99796.05;109513;1268;19633;-71
2023/03/23 08:45:17;;;;;;;;;78.00;59.00;;;;;20.64;48.57;99797.08;109523;1269;20090;-71
2023/03/23 08:47:46;;;;;;;;;46.00;40.00;;;;;20.63;48.83;99798.70;109492;1254;21740;-71
2023/03/23 08:50:13;;;;;;;;;43.50;35.50;;;;;20.59;48.25;99801.41;109498;1262;19540;-71
2023/03/23 08:52:41;;;;;;;;;31.00;26.00;;;;;20.54;47.79;99801.49;109459;1268;20311;-70
2023/03/23 08:55:08;;;;;;;;;25.00;22.00;;;;;20.54;47.46;99799.61;109505;1253;20493;-69
2023/03/23 08:57:36;;;;;;;;;22.00;19.00;;;;;20.55;47.28;99801.74;109498;1253;21031;-71
2023/03/23 09:00:13;;;;;;;;;22.00;16.00;;;;;20.54;47.14;99802.96;109520;1253;24829;-71
2023/03/23 09:02:41;;;;;;;;;18.50;14.00;;;;;20.56;46.98;99804.18;109498;1269;23002;-70
2023/03/23 09:05:10;;;;;;;;;14.50;14.50;;;;;20.54;46.90;99798.40;109513;1253;20897;-70
2023/03/23 09:07:37;;;;;;;;;19.00;13.00;;;;;20.51;46.89;99801.97;109488;1268;23078;-70
2023/03/23 09:10:04;;;;;;;;;16.00;13.00;;;;;20.52;46.97;99800.39;109481;1253;20037;-73
2023/03/23 09:12:32;;;;;;;;;10.00;10.00;;;;;20.54;46.90;99799.44;109503;1268;20765;-73
2023/03/23 09:15:01;;;;;;;;;13.00;12.00;;;;;20.52;46.78;99797.52;109497;1269;23663;-77
2023/03/23 09:17:28;;;;;;;;;10.00;10.00;;;;;20.51;46.66;99794.52;109487;1253;21500;-79
2023/03/23 09:19:56;;;;;;;;;12.00;10.00;;;;;20.53;46.61;99794.62;109454;1263;19589;-78
2023/03/23 09:22:23;;;;;;;;;10.00;10.00;;;;;20.50;46.44;99791.20;109512;1253;22902;-78
2023/03/23 09:24:51;;;;;;;;;10.00;10.00;;;;;20.48;46.23;99791.19;109481;1269;23020;-76
2023/03/23 09:27:19;;;;;;;;;14.00;13.00;;;;;20.48;46.27;99792.73;109475;1269;20942;-77
2023/03/23 09:29:48;;;;;;;;;9.50;9.50;;;;;20.47;46.05;99795.42;109494;1263;23016;-77
2023/03/23 09:32:16;;;;;;;;;10.00;8.00;;;;;20.45;45.78;99793.39;109466;1264;23726;-76
2023/03/23 09:34:43;;;;;;;;;9.50;8.00;;;;;20.45;45.98;99790.07;109469;1253;20880;-77
2023/03/23 09:37:12;;;;;;;;;7.00;7.00;;;;;20.45;45.82;99791.05;109505;1268;20160;-77
2023/03/23 09:39:40;;;;;;;;;9.00;7.00;;;;;20.48;45.82;99797.34;109531;1268;19369;-77
2023/03/23 09:42:07;;;;;;;;;8.00;7.00;;;;;20.49;45.84;99797.52;109553;1263;19357;-77
2023/03/23 09:44:35;;;;;;;;;7.00;7.00;;;;;20.49;45.78;99797.34;109556;1254;22769;-77
2023/03/23 09:47:02;;;;;;;;;7.00;7.00;;;;;20.50;45.83;99790.35;109519;1269;22217;-78
2023/03/23 09:49:29;;;;;;;;;9.00;7.00;;;;;20.52;45.69;99792.84;109494;1253;19367;-77
2023/03/23 09:51:57;;;;;;;;;9.00;9.00;;;;;20.43;45.44;99791.80;109499;1268;20152;-77
2023/03/23 09:54:25;;;;;;;;;7.00;7.00;;;;;20.31;45.29;99796.38;109662;1268;19192;-76
2023/03/23 09:56:52;;;;;;;;;9.00;9.00;;;;;20.29;45.23;99797.45;109552;1268;19413;-81
2023/03/23 09:59:20;;;;;;;;;8.00;8.00;;;;;20.29;44.86;99791.00;109525;1268;20090;-80
2023/03/23 10:01:47;;;;;;;;;6.50;6.00;;;;;20.29;44.63;99784.48;109457;1269;19628;-77
2023/03/23 10:04:15;;;;;;;;;10.00;9.00;;;;;20.32;44.58;99788.21;109482;1262;22374;-77
2023/03/23 10:06:43;;;;;;;;;9.00;7.00;;;;;20.32;44.60;99794.63;109433;1268;20314;-77
2023/03/23 10:09:10;;;;;;;;;6.50;6.00;;;;;20.35;44.50;99790.09;109475;1268;19222;-77
2023/03/23 10:11:38;;;;;;;;;5.50;5.50;;;;;20.39;44.23;99789.78;109505;1269;19581;-78
2023/03/23 10:14:06;;;;;;;;;6.00;6.00;;;;;20.34;44.24;99784.22;109495;1253;21590;-78
2023/03/23 10:16:34;;;;;;;;;6.00;6.00;;;;;20.32;44.32;99781.73;109490;1263;22394;-77
2023/03/23 10:19:02;;;;;;;;;9.50;7.00;;;;;20.27;44.07;99788.20;109493;1268;21591;-78
2023/03/23 10:21:31;;;;;;;;;6.00;6.00;;;;;20.25;43.99;99788.59;109521;1253;22931;-76
2023/03/23 10:23:58;;;;;;;;;6.00;6.00;;;;;20.25;43.99;99789.39;109547;1264;22880;-78
2023/03/23 10:26:26;;;;;;;;;9.00;7.00;;;;;20.22;43.86;99787.30;109505;1253;21914;-77
2023/03/23 10:28:53;;;;;;;;;6.00;6.00;;;;;20.17;43.98;99787.86;109506;1269;20323;-77
2023/03/23 10:31:21;;;;;;;;;6.50;6.00;;;;;20.12;43.85;99796.09;109524;1268;19383;-77
2023/03/23 10:33:48;;;;;;;;;9.00;6.00;;;;;20.13;43.76;99798.98;109501;1268;19855;-75
2023/03/23 10:36:16;;;;;;;;;6.00;6.00;;;;;20.08;43.82;99799.05;109521;1269;23805;-75
2023/03/23 10:38:43;;;;;;;;;6.00;6.00;;;;;20.03;43.58;99801.40;109499;1253;21100;-75
2023/03/23 10:41:11;;;;;;;;;5.00;5.00;;;;;20.08;43.78;99804.70;109488;1253;20848;-75
2023/03/23 10:43:41;;;;;;;;;7.00;7.00;;;;;20.10;43.90;99805.73;109472;1268;20244;-75
2023/03/23 10:46:08;;;;;;;;;7.00;6.00;;;;;20.11;43.55;99810.50;109491;1254;19740;-75
2023/03/23 10:48:36;;;;;;;;;6.00;6.00;;;;;20.05;43.85;99811.56;109535;1268;19603;-75
2023/03/23 10:51:04;;;;;;;;;6.00;6.00;;;;;20.01;43.61;99813.10;109535;1268;20382;-75
2023/03/23 10:53:32;;;;;;;;;6.50;6.50;;;;;19.97;43.50;99816.39;109504;1269;19214;-75
2023/03/23 10:55:59;;;;;;;;;7.00;7.00;;;;;19.96;43.86;99824.39;109309;1269;22298;-75
2023/03/23 10:58:28;;;;;;;;;7.00;7.00;;;;;20.05;43.90;99826.57;109501;1268;23488;-75
2023/03/23 11:00:56;;;;;;;;;6.00;4.00;;;;;20.04;43.75;99835.05;109499;1253;24925;-75
2023/03/23 11:03:24;;;;;;;;;9.00;7.00;;;;;20.02;43.81;99839.67;109471;1268;19420;-76
2023/03/23 11:05:51;;;;;;;;;7.00;6.50;;;;;19.98;43.62;99837.59;109498;1269;23045;-75
2023/03/23 11:08:19;;;;;;;;;7.00;6.00;;;;;20.01;43.91;99842.52;109473;1253;23801;-74
2023/03/23 11:10:46;;;;;;;;;6.00;6.00;;;;;19.97;43.59;99843.85;109513;1254;20805;-75
2023/03/23 11:13:13;;;;;;;;;6.50;6.50;;;;;19.90;43.59;99847.88;109465;1269;20038;-74
2023/03/23 11:15:41;;;;;;;;;6.00;6.00;;;;;19.91;43.54;99850.35;109502;1253;22913;-74
2023/03/23 11:18:10;;;;;;;;;7.00;7.00;;;;;19.93;43.86;99854.06;109512;1253;21014;-74
2023/03/23 11:20:37;;;;;;;;;9.00;9.00;;;;;19.92;43.85;99857.08;109473;1269;22414;-74
2023/03/23 11:23:05;;;;;;;;;6.00;6.00;;;;;19.93;43.81;99851.80;109483;1253;20801;-74